sensor_id;sensor_type;location;lat;lon;timestamp;pressure;altitude;pressure_sealevel;temperature;humidity
29247;BME280;16272;48.188;9.964;2024-02-26T00:01:27;93989.19;;;2.24;81.44
29247;BME280;16272;48.188;9.964;2024-02-26T00:03:52;93992.38;;;2.18;81.82
29247;BME280;16272;48.188;9.964;2024-02-26T00:06:19;93985.41;;;2.36;79.15
29247;BME280;16272;48.188;9.964;2024-02-26T00:08:44;93978.13;;;2.30;79.91
29247;BME280;16272;48.188;9.964;2024-02-26T00:11:10;93974.03;;;2.18;80.03
29247;BME280;16272;48.188;9.964;2024-02-26T00:13:35;93976.13;;;2.42;77.80
29247;BME280;16272;48.188;9.964;2024-02-26T00:16:02;93984.00;;;2.42;77.65
29247;BME280;16272;48.188;9.964;2024-02-26T00:18:27;93973.97;;;2.55;77.08
29247;BME280;16272;48.188;9.964;2024-02-26T00:20:52;93972.28;;;2.64;76.78
29247;BME280;16272;48.188;9.964;2024-02-26T00:23:17;93975.50;;;2.58;76.69
29247;BME280;16272;48.188;9.964;2024-02-26T00:25:43;93973.94;;;2.37;78.80
29247;BME280;16272;48.188;9.964;2024-02-26T00:28:09;93971.34;;;2.55;77.06
29247;BME280;16272;48.188;9.964;2024-02-26T00:30:35;93970.63;;;2.63;76.42
29247;BME280;16272;48.188;9.964;2024-02-26T00:33:00;93971.50;;;2.54;77.73
29247;BME280;16272;48.188;9.964;2024-02-26T00:35:25;93972.19;;;2.56;78.45
29247;BME280;16272;48.188;9.964;2024-02-26T00:37:51;93975.56;;;2.20;80.50
29247;BME280;16272;48.188;9.964;2024-02-26T00:40:16;93976.56;;;2.37;80.91
29247;BME280;16272;48.188;9.964;2024-02-26T00:42:41;93975.97;;;2.44;79.36
29247;BME280;16272;48.188;9.964;2024-02-26T00:45:11;93977.16;;;2.31;81.71
29247;BME280;16272;48.188;9.964;2024-02-26T00:47:37;93979.50;;;2.52;80.18
29247;BME280;16272;48.188;9.964;2024-02-26T00:50:02;93968.66;;;2.65;77.62
29247;BME280;16272;48.188;9.964;2024-02-26T00:52:27;93964.34;;;2.56;79.59
29247;BME280;16272;48.188;9.964;2024-02-26T00:54:53;93960.19;;;2.53;78.44
29247;BME280;16272;48.188;9.964;2024-02-26T00:57:18;93965.66;;;2.60;79.38
29247;BME280;16272;48.188;9.964;2024-02-26T00:59:43;93964.94;;;2.86;78.75
29247;BME280;16272;48.188;9.964;2024-02-26T01:02:08;93969.06;;;2.88;78.00
29247;BME280;16272;48.188;9.964;2024-02-26T01:04:34;93965.91;;;2.85;78.91
29247;BME280;16272;48.188;9.964;2024-02-26T01:06:59;93965.16;;;2.92;78.05
29247;BME280;16272;48.188;9.964;2024-02-26T01:09:25;93970.25;;;2.76;78.51
29247;BME280;16272;48.188;9.964;2024-02-26T01:11:50;93968.13;;;2.44;81.11
29247;BME280;16272;48.188;9.964;2024-02-26T01:14:15;93966.63;;;2.41;81.65
29247;BME280;16272;48.188;9.964;2024-02-26T01:16:41;93965.50;;;2.16;84.93
29247;BME280;16272;48.188;9.964;2024-02-26T01:19:06;93959.59;;;2.14;84.73
29247;BME280;16272;48.188;9.964;2024-02-26T01:21:31;93963.75;;;2.34;82.36
29247;BME280;16272;48.188;9.964;2024-02-26T01:23:57;93949.56;;;2.09;85.78
29247;BME280;16272;48.188;9.964;2024-02-26T01:26:22;93958.22;;;2.37;82.47
29247;BME280;16272;48.188;9.964;2024-02-26T01:28:48;93952.00;;;2.20;84.15
29247;BME280;16272;48.188;9.964;2024-02-26T01:31:13;93960.03;;;2.37;80.41
29247;BME280;16272;48.188;9.964;2024-02-26T01:33:38;93953.53;;;2.59;78.61
29247;BME280;16272;48.188;9.964;2024-02-26T01:36:04;93963.09;;;2.32;81.12
29247;BME280;16272;48.188;9.964;2024-02-26T01:38:29;93948.13;;;2.43;80.57
29247;BME280;16272;48.188;9.964;2024-02-26T01:40:54;93939.47;;;2.60;77.91
29247;BME280;16272;48.188;9.964;2024-02-26T01:43:20;93948.91;;;2.53;79.08
29247;BME280;16272;48.188;9.964;2024-02-26T01:45:45;93941.72;;;2.55;79.02
29247;BME280;16272;48.188;9.964;2024-02-26T01:48:10;93944.84;;;2.58;79.07
29247;BME280;16272;48.188;9.964;2024-02-26T01:50:36;93935.03;;;2.79;77.49
29247;BME280;16272;48.188;9.964;2024-02-26T01:53:03;93942.09;;;2.78;76.96
29247;BME280;16272;48.188;9.964;2024-02-26T01:55:29;93943.81;;;2.87;77.55
29247;BME280;16272;48.188;9.964;2024-02-26T01:57:54;93945.16;;;2.73;79.18
29247;BME280;16272;48.188;9.964;2024-02-26T02:00:20;93944.06;;;2.76;77.37
29247;BME280;16272;48.188;9.964;2024-02-26T02:02:46;93953.31;;;2.70;78.52
29247;BME280;16272;48.188;9.964;2024-02-26T02:05:15;93952.81;;;2.85;77.50
29247;BME280;16272;48.188;9.964;2024-02-26T02:07:41;93948.91;;;2.89;77.15
29247;BME280;16272;48.188;9.964;2024-02-26T02:10:07;93952.50;;;2.88;77.85
29247;BME280;16272;48.188;9.964;2024-02-26T02:12:32;93951.19;;;2.84;79.46
29247;BME280;16272;48.188;9.964;2024-02-26T02:14:59;93947.69;;;3.01;78.24
29247;BME280;16272;48.188;9.964;2024-02-26T02:17:26;93952.94;;;3.01;77.16
29247;BME280;16272;48.188;9.964;2024-02-26T02:19:52;93949.59;;;2.91;79.39
29247;BME280;16272;48.188;9.964;2024-02-26T02:22:18;93953.88;;;2.92;78.73
29247;BME280;16272;48.188;9.964;2024-02-26T02:24:44;93957.44;;;2.91;79.07
29247;BME280;16272;48.188;9.964;2024-02-26T02:27:10;93954.91;;;2.81;82.28
29247;BME280;16272;48.188;9.964;2024-02-26T02:29:36;93952.19;;;2.55;82.50
29247;BME280;16272;48.188;9.964;2024-02-26T02:32:01;93949.94;;;2.60;82.61
29247;BME280;16272;48.188;9.964;2024-02-26T02:34:28;93955.94;;;2.70;83.05
29247;BME280;16272;48.188;9.964;2024-02-26T02:36:54;93954.97;;;2.53;83.35
29247;BME280;16272;48.188;9.964;2024-02-26T02:39:20;93941.28;;;2.78;81.90
29247;BME280;16272;48.188;9.964;2024-02-26T02:41:46;93946.66;;;2.94;80.94
29247;BME280;16272;48.188;9.964;2024-02-26T02:44:12;93939.97;;;3.00;80.88
29247;BME280;16272;48.188;9.964;2024-02-26T02:46:37;93949.66;;;2.81;81.42
29247;BME280;16272;48.188;9.964;2024-02-26T02:49:03;93946.53;;;2.78;83.61
29247;BME280;16272;48.188;9.964;2024-02-26T02:51:28;93944.41;;;2.99;80.29
29247;BME280;16272;48.188;9.964;2024-02-26T02:53:53;93956.09;;;2.87;81.94
29247;BME280;16272;48.188;9.964;2024-02-26T02:56:19;93946.16;;;2.90;80.15
29247;BME280;16272;48.188;9.964;2024-02-26T02:58:44;93941.84;;;3.07;79.84
29247;BME280;16272;48.188;9.964;2024-02-26T03:01:10;93949.50;;;2.83;83.03
29247;BME280;16272;48.188;9.964;2024-02-26T03:03:35;93947.25;;;2.88;82.72
29247;BME280;16272;48.188;9.964;2024-02-26T03:06:02;93943.31;;;2.84;82.88
29247;BME280;16272;48.188;9.964;2024-02-26T03:08:27;93953.53;;;2.95;82.17
29247;BME280;16272;48.188;9.964;2024-02-26T03:10:52;93951.00;;;3.03;80.10
29247;BME280;16272;48.188;9.964;2024-02-26T03:13:19;93954.06;;;3.17;79.78
29247;BME280;16272;48.188;9.964;2024-02-26T03:15:44;93950.47;;;3.18;78.24
29247;BME280;16272;48.188;9.964;2024-02-26T03:18:09;93955.19;;;3.14;78.53
29247;BME280;16272;48.188;9.964;2024-02-26T03:20:35;93961.00;;;3.26;78.16
29247;BME280;16272;48.188;9.964;2024-02-26T03:23:00;93957.78;;;3.32;77.64
29247;BME280;16272;48.188;9.964;2024-02-26T03:25:25;93957.25;;;3.46;76.85
29247;BME280;16272;48.188;9.964;2024-02-26T03:27:51;93951.63;;;3.41;77.33
29247;BME280;16272;48.188;9.964;2024-02-26T03:30:16;93949.94;;;3.58;76.84
29247;BME280;16272;48.188;9.964;2024-02-26T03:32:41;93963.88;;;3.59;77.76
29247;BME280;16272;48.188;9.964;2024-02-26T03:35:07;93963.91;;;3.67;76.10
29247;BME280;16272;48.188;9.964;2024-02-26T03:37:33;93968.66;;;3.63;76.94
29247;BME280;16272;48.188;9.964;2024-02-26T03:39:58;93968.19;;;3.68;76.54
29247;BME280;16272;48.188;9.964;2024-02-26T03:42:24;93969.81;;;3.61;77.60
29247;BME280;16272;48.188;9.964;2024-02-26T03:44:49;93978.94;;;3.57;78.43
29247;BME280;16272;48.188;9.964;2024-02-26T03:47:15;93978.19;;;3.38;79.78
29247;BME280;16272;48.188;9.964;2024-02-26T03:49:41;93972.16;;;3.72;77.95
29247;BME280;16272;48.188;9.964;2024-02-26T03:52:06;93976.22;;;3.66;77.56
29247;BME280;16272;48.188;9.964;2024-02-26T03:54:32;93972.97;;;3.46;79.63
29247;BME280;16272;48.188;9.964;2024-02-26T03:56:57;93965.81;;;3.57;79.32
29247;BME280;16272;48.188;9.964;2024-02-26T03:59:23;93968.81;;;3.62;77.24
29247;BME280;16272;48.188;9.964;2024-02-26T04:01:50;93977.63;;;3.53;78.96
29247;BME280;16272;48.188;9.964;2024-02-26T04:04:15;93970.94;;;3.58;78.69
29247;BME280;16272;48.188;9.964;2024-02-26T04:06:47;93975.97;;;3.52;79.33
29247;BME280;16272;48.188;9.964;2024-02-26T04:09:15;93962.47;;;3.20;82.77
29247;BME280;16272;48.188;9.964;2024-02-26T04:11:40;93966.69;;;3.39;80.80
29247;BME280;16272;48.188;9.964;2024-02-26T04:14:06;93961.22;;;3.33;81.58
29247;BME280;16272;48.188;9.964;2024-02-26T04:16:34;93961.81;;;3.44;81.38
29247;BME280;16272;48.188;9.964;2024-02-26T04:18:59;93965.78;;;3.48;80.93
29247;BME280;16272;48.188;9.964;2024-02-26T04:21:24;93960.00;;;3.45;81.27
29247;BME280;16272;48.188;9.964;2024-02-26T04:23:50;93971.06;;;3.57;79.09
29247;BME280;16272;48.188;9.964;2024-02-26T04:26:15;93976.88;;;3.42;81.04
29247;BME280;16272;48.188;9.964;2024-02-26T04:28:41;93970.69;;;3.25;83.79
29247;BME280;16272;48.188;9.964;2024-02-26T04:31:06;93971.38;;;3.54;79.63
29247;BME280;16272;48.188;9.964;2024-02-26T04:33:34;93974.88;;;3.36;81.37
29247;BME280;16272;48.188;9.964;2024-02-26T04:36:00;93977.00;;;3.59;79.12
29247;BME280;16272;48.188;9.964;2024-02-26T04:38:25;93974.06;;;3.62;78.29
29247;BME280;16272;48.188;9.964;2024-02-26T04:40:51;93984.00;;;3.50;79.83
29247;BME280;16272;48.188;9.964;2024-02-26T04:43:16;93976.19;;;3.58;79.11
29247;BME280;16272;48.188;9.964;2024-02-26T04:45:43;93982.53;;;3.56;78.89
29247;BME280;16272;48.188;9.964;2024-02-26T04:48:08;93977.63;;;3.53;78.96
29247;BME280;16272;48.188;9.964;2024-02-26T04:50:33;93991.72;;;3.52;79.86
29247;BME280;16272;48.188;9.964;2024-02-26T04:52:59;93992.78;;;3.67;79.33
29247;BME280;16272;48.188;9.964;2024-02-26T04:55:24;93980.72;;;3.48;78.93
29247;BME280;16272;48.188;9.964;2024-02-26T04:57:49;93994.09;;;3.63;79.05
29247;BME280;16272;48.188;9.964;2024-02-26T05:00:15;93986.81;;;3.57;78.50
29247;BME280;16272;48.188;9.964;2024-02-26T05:02:40;93984.50;;;3.54;79.04
29247;BME280;16272;48.188;9.964;2024-02-26T05:05:06;93971.31;;;3.45;80.16
29247;BME280;16272;48.188;9.964;2024-02-26T05:07:32;93958.88;;;3.47;80.68
29247;BME280;16272;48.188;9.964;2024-02-26T05:09:57;93953.09;;;3.44;81.93
29247;BME280;16272;48.188;9.964;2024-02-26T05:12:22;93937.16;;;3.63;81.18
29247;BME280;16272;48.188;9.964;2024-02-26T05:14:48;93940.19;;;3.50;81.24
29247;BME280;16272;48.188;9.964;2024-02-26T05:17:13;93933.91;;;3.43;80.15
29247;BME280;16272;48.188;9.964;2024-02-26T05:19:38;93936.00;;;3.58;79.14
29247;BME280;16272;48.188;9.964;2024-02-26T05:22:03;93945.53;;;3.67;79.08
29247;BME280;16272;48.188;9.964;2024-02-26T05:24:29;93946.66;;;3.56;79.71
29247;BME280;16272;48.188;9.964;2024-02-26T05:26:54;93944.47;;;3.52;79.06
29247;BME280;16272;48.188;9.964;2024-02-26T05:29:20;93945.19;;;3.62;79.06
29247;BME280;16272;48.188;9.964;2024-02-26T05:31:45;93947.75;;;3.54;79.85
29247;BME280;16272;48.188;9.964;2024-02-26T05:34:11;93944.97;;;3.81;78.16
29247;BME280;16272;48.188;9.964;2024-02-26T05:36:36;93949.59;;;3.88;78.15
29247;BME280;16272;48.188;9.964;2024-02-26T05:39:02;93951.69;;;3.76;77.58
29247;BME280;16272;48.188;9.964;2024-02-26T05:41:28;93955.28;;;3.75;78.01
29247;BME280;16272;48.188;9.964;2024-02-26T05:43:54;93954.66;;;3.81;77.85
29247;BME280;16272;48.188;9.964;2024-02-26T05:46:20;93958.38;;;3.70;78.98
29247;BME280;16272;48.188;9.964;2024-02-26T05:48:51;93965.94;;;3.73;77.70
29247;BME280;16272;48.188;9.964;2024-02-26T05:51:16;93974.97;;;3.71;78.23
29247;BME280;16272;48.188;9.964;2024-02-26T05:53:42;93973.59;;;3.66;80.45
29247;BME280;16272;48.188;9.964;2024-02-26T05:56:07;93983.53;;;3.55;80.21
29247;BME280;16272;48.188;9.964;2024-02-26T05:58:33;93986.16;;;3.55;80.03
29247;BME280;16272;48.188;9.964;2024-02-26T06:00:58;93978.25;;;3.73;78.24
29247;BME280;16272;48.188;9.964;2024-02-26T06:03:25;93987.59;;;3.75;78.94
29247;BME280;16272;48.188;9.964;2024-02-26T06:05:50;93986.56;;;3.94;77.43
29247;BME280;16272;48.188;9.964;2024-02-26T06:08:15;93998.19;;;3.65;79.75
29247;BME280;16272;48.188;9.964;2024-02-26T06:10:41;93989.88;;;3.70;80.50
29247;BME280;16272;48.188;9.964;2024-02-26T06:13:06;93996.63;;;3.10;83.41
29247;BME280;16272;48.188;9.964;2024-02-26T06:15:31;93999.09;;;3.30;83.21
29247;BME280;16272;48.188;9.964;2024-02-26T06:17:57;93996.25;;;3.41;81.75
29247;BME280;16272;48.188;9.964;2024-02-26T06:20:22;93993.53;;;3.51;80.99
29247;BME280;16272;48.188;9.964;2024-02-26T06:22:47;93993.34;;;3.71;78.85
29247;BME280;16272;48.188;9.964;2024-02-26T06:25:13;94006.03;;;3.83;79.24
29247;BME280;16272;48.188;9.964;2024-02-26T06:27:38;94016.97;;;3.71;79.50
29247;BME280;16272;48.188;9.964;2024-02-26T06:30:04;94015.47;;;3.68;78.75
29247;BME280;16272;48.188;9.964;2024-02-26T06:32:29;94007.41;;;3.43;79.80
29247;BME280;16272;48.188;9.964;2024-02-26T06:34:55;94005.41;;;3.63;77.69
29247;BME280;16272;48.188;9.964;2024-02-26T06:37:20;94005.47;;;3.72;77.63
29247;BME280;16272;48.188;9.964;2024-02-26T06:39:45;94005.41;;;3.63;77.85
29247;BME280;16272;48.188;9.964;2024-02-26T06:42:11;93992.03;;;3.48;78.56
29247;BME280;16272;48.188;9.964;2024-02-26T06:44:37;93991.66;;;3.43;79.56
29247;BME280;16272;48.188;9.964;2024-02-26T06:47:02;93994.53;;;3.32;80.22
29247;BME280;16272;48.188;9.964;2024-02-26T06:49:28;93986.06;;;3.38;79.83
29247;BME280;16272;48.188;9.964;2024-02-26T06:51:53;94004.13;;;3.41;79.80
29247;BME280;16272;48.188;9.964;2024-02-26T06:54:19;94014.44;;;3.61;79.09
29247;BME280;16272;48.188;9.964;2024-02-26T06:56:44;94028.06;;;3.64;79.09
29247;BME280;16272;48.188;9.964;2024-02-26T06:59:09;94044.31;;;3.24;81.79
29247;BME280;16272;48.188;9.964;2024-02-26T07:01:35;94053.69;;;3.44;80.80
29247;BME280;16272;48.188;9.964;2024-02-26T07:04:00;94067.41;;;3.38;81.08
29247;BME280;16272;48.188;9.964;2024-02-26T07:06:26;94075.78;;;3.60;80.88
29247;BME280;16272;48.188;9.964;2024-02-26T07:08:52;94075.19;;;3.66;80.02
29247;BME280;16272;48.188;9.964;2024-02-26T07:11:17;94068.81;;;3.95;79.00
29247;BME280;16272;48.188;9.964;2024-02-26T07:13:45;94075.16;;;4.10;78.19
29247;BME280;16272;48.188;9.964;2024-02-26T07:16:10;94076.94;;;3.83;79.86
29247;BME280;16272;48.188;9.964;2024-02-26T07:18:35;94082.66;;;3.79;79.98
29247;BME280;16272;48.188;9.964;2024-02-26T07:21:04;94074.59;;;3.80;79.28
29247;BME280;16272;48.188;9.964;2024-02-26T07:23:29;94080.81;;;3.97;77.92
29247;BME280;16272;48.188;9.964;2024-02-26T07:25:54;94071.13;;;3.98;78.36
29247;BME280;16272;48.188;9.964;2024-02-26T07:28:20;94074.22;;;4.19;77.18
29247;BME280;16272;48.188;9.964;2024-02-26T07:30:45;94073.06;;;4.14;77.37
29247;BME280;16272;48.188;9.964;2024-02-26T07:33:10;94079.00;;;4.24;77.38
29247;BME280;16272;48.188;9.964;2024-02-26T07:35:36;94075.25;;;4.53;77.05
29247;BME280;16272;48.188;9.964;2024-02-26T07:38:04;94082.25;;;4.44;76.56
29247;BME280;16272;48.188;9.964;2024-02-26T07:40:29;94071.22;;;4.75;76.10
29247;BME280;16272;48.188;9.964;2024-02-26T07:42:54;94070.94;;;4.86;76.24
29247;BME280;16272;48.188;9.964;2024-02-26T07:45:21;94073.28;;;4.97;76.12
29247;BME280;16272;48.188;9.964;2024-02-26T07:47:47;94087.44;;;5.13;75.61
29247;BME280;16272;48.188;9.964;2024-02-26T07:50:12;94084.22;;;5.44;76.23
29247;BME280;16272;48.188;9.964;2024-02-26T07:52:38;94094.41;;;5.30;74.73
29247;BME280;16272;48.188;9.964;2024-02-26T07:55:03;94091.47;;;5.42;74.08
29247;BME280;16272;48.188;9.964;2024-02-26T07:57:29;94091.50;;;5.58;74.62
29247;BME280;16272;48.188;9.964;2024-02-26T07:59:54;94094.22;;;5.24;73.94
29247;BME280;16272;48.188;9.964;2024-02-26T08:02:20;94090.75;;;5.07;74.35
29247;BME280;16272;48.188;9.964;2024-02-26T08:04:47;94096.06;;;5.40;74.09
29247;BME280;16272;48.188;9.964;2024-02-26T08:07:12;94090.66;;;5.41;73.25
29247;BME280;16272;48.188;9.964;2024-02-26T08:09:37;94103.19;;;5.72;72.89
29247;BME280;16272;48.188;9.964;2024-02-26T08:12:03;94101.34;;;5.40;74.18
29247;BME280;16272;48.188;9.964;2024-02-26T08:14:28;94094.28;;;5.65;73.32
29247;BME280;16272;48.188;9.964;2024-02-26T08:16:53;94088.22;;;5.89;72.43
29247;BME280;16272;48.188;9.964;2024-02-26T08:19:19;94095.28;;;5.64;74.75
29247;BME280;16272;48.188;9.964;2024-02-26T08:21:44;94096.16;;;6.05;74.69
29247;BME280;16272;48.188;9.964;2024-02-26T08:24:09;94088.06;;;6.15;74.04
29247;BME280;16272;48.188;9.964;2024-02-26T08:26:35;94088.53;;;6.35;72.85
29247;BME280;16272;48.188;9.964;2024-02-26T08:29:00;94088.50;;;6.52;72.64
29247;BME280;16272;48.188;9.964;2024-02-26T08:31:25;94084.19;;;6.51;71.45
29247;BME280;16272;48.188;9.964;2024-02-26T08:33:52;94085.47;;;6.71;71.10
29247;BME280;16272;48.188;9.964;2024-02-26T08:36:17;94087.56;;;6.84;69.72
29247;BME280;16272;48.188;9.964;2024-02-26T08:38:42;94080.88;;;7.05;68.30
29247;BME280;16272;48.188;9.964;2024-02-26T08:41:08;94080.91;;;8.58;70.24
29247;BME280;16272;48.188;9.964;2024-02-26T08:43:33;94073.44;;;8.77;66.67
29247;BME280;16272;48.188;9.964;2024-02-26T08:45:58;94074.44;;;8.76;64.30
29247;BME280;16272;48.188;9.964;2024-02-26T08:48:24;94081.38;;;8.62;64.79
29247;BME280;16272;48.188;9.964;2024-02-26T08:50:49;94081.63;;;8.52;64.87
29247;BME280;16272;48.188;9.964;2024-02-26T08:53:14;94088.13;;;8.50;64.58
29247;BME280;16272;48.188;9.964;2024-02-26T08:55:39;94071.03;;;7.76;67.08
29247;BME280;16272;48.188;9.964;2024-02-26T08:58:05;94079.59;;;7.78;67.12
29247;BME280;16272;48.188;9.964;2024-02-26T09:00:30;94075.25;;;7.85;66.10
29247;BME280;16272;48.188;9.964;2024-02-26T09:02:56;94081.50;;;7.93;67.69
29247;BME280;16272;48.188;9.964;2024-02-26T09:05:21;94073.19;;;7.96;67.16
29247;BME280;16272;48.188;9.964;2024-02-26T09:07:46;94067.63;;;7.90;67.34
29247;BME280;16272;48.188;9.964;2024-02-26T09:10:12;94067.03;;;7.80;68.21
29247;BME280;16272;48.188;9.964;2024-02-26T09:12:37;94075.59;;;7.36;68.86
29247;BME280;16272;48.188;9.964;2024-02-26T09:15:06;94082.66;;;7.67;67.82
29247;BME280;16272;48.188;9.964;2024-02-26T09:17:31;94075.03;;;7.72;67.29
29247;BME280;16272;48.188;9.964;2024-02-26T09:19:56;94088.44;;;7.94;67.80
29247;BME280;16272;48.188;9.964;2024-02-26T09:22:22;94080.28;;;8.18;66.74
29247;BME280;16272;48.188;9.964;2024-02-26T09:24:47;94089.00;;;8.04;67.87
29247;BME280;16272;48.188;9.964;2024-02-26T09:27:15;94082.00;;;8.26;66.80
29247;BME280;16272;48.188;9.964;2024-02-26T09:29:40;94081.38;;;8.24;65.72
29247;BME280;16272;48.188;9.964;2024-02-26T09:32:06;94090.19;;;8.16;66.57
29247;BME280;16272;48.188;9.964;2024-02-26T09:34:31;94088.41;;;8.70;65.58
29247;BME280;16272;48.188;9.964;2024-02-26T09:36:56;94087.91;;;9.26;64.18
29247;BME280;16272;48.188;9.964;2024-02-26T09:39:22;94096.22;;;9.59;64.02
29247;BME280;16272;48.188;9.964;2024-02-26T09:41:48;94083.69;;;10.33;61.60
29247;BME280;16272;48.188;9.964;2024-02-26T09:44:18;94083.41;;;10.77;59.64
29247;BME280;16272;48.188;9.964;2024-02-26T09:46:44;94079.69;;;11.62;58.72
29247;BME280;16272;48.188;9.964;2024-02-26T09:49:11;94075.72;;;11.44;57.61
29247;BME280;16272;48.188;9.964;2024-02-26T09:51:38;94086.88;;;10.28;58.93
29247;BME280;16272;48.188;9.964;2024-02-26T09:54:04;94084.38;;;10.70;58.02
29247;BME280;16272;48.188;9.964;2024-02-26T09:56:32;94092.44;;;10.55;58.33
29247;BME280;16272;48.188;9.964;2024-02-26T09:58:58;94089.38;;;10.86;58.39
29247;BME280;16272;48.188;9.964;2024-02-26T10:01:24;94088.00;;;11.45;57.77
29247;BME280;16272;48.188;9.964;2024-02-26T10:03:57;94087.38;;;12.05;55.27
29247;BME280;16272;48.188;9.964;2024-02-26T10:06:24;94091.31;;;11.61;55.53
29247;BME280;16272;48.188;9.964;2024-02-26T10:08:51;94089.84;;;12.13;54.36
29247;BME280;16272;48.188;9.964;2024-02-26T10:11:16;94089.78;;;12.93;52.97
29247;BME280;16272;48.188;9.964;2024-02-26T10:13:42;94083.50;;;12.54;55.66
29247;BME280;16272;48.188;9.964;2024-02-26T10:16:07;94082.41;;;11.88;52.78
29247;BME280;16272;48.188;9.964;2024-02-26T10:18:46;94090.50;;;11.60;53.60
29247;BME280;16272;48.188;9.964;2024-02-26T10:21:11;94092.59;;;11.71;57.01
29247;BME280;16272;48.188;9.964;2024-02-26T10:23:37;94087.16;;;12.13;57.41
29247;BME280;16272;48.188;9.964;2024-02-26T10:26:02;94090.13;;;11.70;52.65
29247;BME280;16272;48.188;9.964;2024-02-26T10:28:29;94099.47;;;11.52;54.52
29247;BME280;16272;48.188;9.964;2024-02-26T10:30:54;94097.19;;;11.43;56.96
29247;BME280;16272;48.188;9.964;2024-02-26T10:33:20;94095.81;;;11.53;56.70
29247;BME280;16272;48.188;9.964;2024-02-26T10:35:46;94087.75;;;11.95;55.84
29247;BME280;16272;48.188;9.964;2024-02-26T10:38:12;94091.09;;;11.49;55.36
29247;BME280;16272;48.188;9.964;2024-02-26T10:40:37;94093.97;;;11.61;57.96
29247;BME280;16272;48.188;9.964;2024-02-26T10:43:02;94093.06;;;11.27;55.68
29247;BME280;16272;48.188;9.964;2024-02-26T10:45:28;94089.84;;;11.03;57.11
29247;BME280;16272;48.188;9.964;2024-02-26T10:47:53;94087.31;;;10.88;55.69
29247;BME280;16272;48.188;9.964;2024-02-26T10:50:19;94078.72;;;10.79;57.54
29247;BME280;16272;48.188;9.964;2024-02-26T10:52:44;94093.72;;;11.42;56.41
29247;BME280;16272;48.188;9.964;2024-02-26T10:55:17;94092.16;;;11.13;56.79
29247;BME280;16272;48.188;9.964;2024-02-26T10:57:45;94100.72;;;11.56;55.49
29247;BME280;16272;48.188;9.964;2024-02-26T11:00:15;94101.69;;;11.42;57.27
29247;BME280;16272;48.188;9.964;2024-02-26T11:02:41;94102.06;;;11.32;56.02
29247;BME280;16272;48.188;9.964;2024-02-26T11:05:07;94096.59;;;10.71;57.75
29247;BME280;16272;48.188;9.964;2024-02-26T11:07:36;94092.72;;;11.43;56.82
29247;BME280;16272;48.188;9.964;2024-02-26T11:10:03;94096.50;;;11.82;57.19
29247;BME280;16272;48.188;9.964;2024-02-26T11:12:29;94092.66;;;11.91;57.19
29247;BME280;16272;48.188;9.964;2024-02-26T11:14:56;94096.22;;;11.50;57.84
29247;BME280;16272;48.188;9.964;2024-02-26T11:17:26;94094.63;;;11.63;56.91
29247;BME280;16272;48.188;9.964;2024-02-26T11:19:55;94093.66;;;11.29;56.91
29247;BME280;16272;48.188;9.964;2024-02-26T11:22:21;94089.41;;;11.96;57.83
29247;BME280;16272;48.188;9.964;2024-02-26T11:24:48;94096.25;;;10.80;56.67
29247;BME280;16272;48.188;9.964;2024-02-26T11:27:15;94097.25;;;10.44;57.91
29247;BME280;16272;48.188;9.964;2024-02-26T11:29:46;94087.59;;;10.65;55.72
29247;BME280;16272;48.188;9.964;2024-02-26T11:32:12;94093.25;;;10.55;55.66
29247;BME280;16272;48.188;9.964;2024-02-26T11:34:38;94097.25;;;10.23;55.86
29247;BME280;16272;48.188;9.964;2024-02-26T11:37:30;94092.09;;;10.99;55.57
29247;BME280;16272;48.188;9.964;2024-02-26T11:39:59;94093.38;;;11.10;55.88
29247;BME280;16272;48.188;9.964;2024-02-26T11:42:24;94099.31;;;11.61;55.77
29247;BME280;16272;48.188;9.964;2024-02-26T11:44:50;94102.41;;;11.71;54.61
29247;BME280;16272;48.188;9.964;2024-02-26T11:47:21;94102.78;;;11.54;55.28
29247;BME280;16272;48.188;9.964;2024-02-26T11:49:46;94108.84;;;11.42;53.61
29247;BME280;16272;48.188;9.964;2024-02-26T11:52:13;94104.63;;;11.12;54.31
29247;BME280;16272;48.188;9.964;2024-02-26T11:54:57;94102.75;;;11.06;53.42
29247;BME280;16272;48.188;9.964;2024-02-26T11:57:30;94109.97;;;11.19;56.13
29247;BME280;16272;48.188;9.964;2024-02-26T11:59:57;94107.06;;;11.55;55.31
29247;BME280;16272;48.188;9.964;2024-02-26T12:07:44;94107.94;;;11.21;55.65
29247;BME280;16272;48.188;9.964;2024-02-26T12:10:27;94116.09;;;11.61;55.10
29247;BME280;16272;48.188;9.964;2024-02-26T12:13:06;94110.50;;;11.01;56.15
29247;BME280;16272;48.188;9.964;2024-02-26T12:15:35;94112.81;;;11.11;55.97
29247;BME280;16272;48.188;9.964;2024-02-26T12:18:03;94113.88;;;11.23;56.03
29247;BME280;16272;48.188;9.964;2024-02-26T12:20:29;94105.84;;;11.10;56.38
29247;BME280;16272;48.188;9.964;2024-02-26T12:22:56;94109.16;;;11.18;55.41
29247;BME280;16272;48.188;9.964;2024-02-26T12:25:27;94112.31;;;11.42;55.43
29247;BME280;16272;48.188;9.964;2024-02-26T12:27:53;94107.75;;;11.22;56.60
29247;BME280;16272;48.188;9.964;2024-02-26T12:30:19;94112.72;;;10.97;57.54
29247;BME280;16272;48.188;9.964;2024-02-26T12:32:45;94112.03;;;10.89;58.25
29247;BME280;16272;48.188;9.964;2024-02-26T12:35:11;94107.69;;;10.74;57.18
29247;BME280;16272;48.188;9.964;2024-02-26T12:37:37;94106.94;;;10.87;57.04
29247;BME280;16272;48.188;9.964;2024-02-26T12:40:08;94118.53;;;10.79;59.69
29247;BME280;16272;48.188;9.964;2024-02-26T12:42:34;94116.69;;;11.15;57.91
29247;BME280;16272;48.188;9.964;2024-02-26T12:45:05;94111.44;;;10.58;57.72
29247;BME280;16272;48.188;9.964;2024-02-26T12:47:41;94116.31;;;10.55;57.51
29247;BME280;16272;48.188;9.964;2024-02-26T12:50:07;94119.16;;;10.81;57.83
29247;BME280;16272;48.188;9.964;2024-02-26T12:52:34;94107.97;;;10.58;58.57
29247;BME280;16272;48.188;9.964;2024-02-26T12:55:01;94114.75;;;10.17;59.76
29247;BME280;16272;48.188;9.964;2024-02-26T12:57:29;94119.75;;;10.27;59.26
29247;BME280;16272;48.188;9.964;2024-02-26T12:59:56;94120.66;;;10.62;59.34
29247;BME280;16272;48.188;9.964;2024-02-26T13:02:22;94122.88;;;10.59;58.73
29247;BME280;16272;48.188;9.964;2024-02-26T13:04:47;94115.25;;;10.49;58.86
29247;BME280;16272;48.188;9.964;2024-02-26T13:07:13;94117.97;;;10.34;59.90